createdAt,value
2018-06-16T00:00:14.881Z,24.8
2018-06-16T00:01:23.790Z,24.8
2018-06-16T00:02:33.476Z,24.88
2018-06-16T00:03:42.932Z,24.8
2018-06-16T00:04:52.608Z,24.88
2018-06-16T00:06:02.295Z,24.85
2018-06-16T00:07:11.978Z,24.83
2018-06-16T00:08:21.915Z,24.8
2018-06-16T00:09:30.835Z,24.8
2018-06-16T00:10:40.567Z,24.83
2018-06-16T00:11:49.993Z,24.85
2018-06-16T00:12:59.420Z,24.87
2018-06-16T00:14:08.878Z,24.8
2018-06-16T00:15:18.282Z,24.8
2018-06-16T00:16:27.499Z,24.84
2018-06-16T00:17:36.658Z,24.88
2018-06-16T00:18:46.091Z,24.83
2018-06-16T00:19:55.530Z,24.8
2018-06-16T00:21:04.962Z,24.81
2018-06-16T00:22:14.937Z,24.91
2018-06-16T00:23:23.836Z,24.91
2018-06-16T00:24:32.995Z,24.81
2018-06-16T00:25:41.905Z,24.91
2018-06-16T00:26:51.348Z,24.84
2018-06-16T00:28:00.838Z,24.77
2018-06-16T00:29:10.018Z,24.78
2018-06-16T00:30:19.176Z,24.84
2018-06-16T00:31:28.093Z,24.8
2018-06-16T00:32:38.018Z,24.81
2018-06-16T00:33:47.438Z,24.83
2018-06-16T00:34:56.608Z,24.81
2018-06-16T00:36:06.051Z,24.8
2018-06-16T00:37:15.511Z,24.84
2018-06-16T00:38:25.016Z,24.8
2018-06-16T00:39:34.535Z,24.83
2018-06-16T00:40:43.994Z,24.8
2018-06-16T00:41:53.216Z,24.8
2018-06-16T00:43:02.930Z,24.8
2018-06-16T00:44:12.476Z,24.83
2018-06-16T00:45:22.288Z,24.84
2018-06-16T00:46:31.602Z,24.81
2018-06-16T00:47:41.166Z,24.81
2018-06-16T00:48:50.569Z,24.77
2018-06-16T00:49:59.735Z,24.81
2018-06-16T00:51:08.635Z,24.85
2018-06-16T00:52:17.548Z,24.8
2018-06-16T00:53:26.956Z,24.81
2018-06-16T00:54:36.626Z,24.8
2018-06-16T00:55:46.055Z,24.78
2018-06-16T00:56:55.488Z,24.84
2018-06-16T00:58:05.181Z,24.83
2018-06-16T00:59:14.611Z,24.8
2018-06-16T01:00:24.034Z,24.87
2018-06-16T01:01:33.217Z,24.8
2018-06-16T01:02:42.663Z,24.88
2018-06-16T01:03:52.602Z,24.81
2018-06-16T01:05:02.028Z,24.84
2018-06-16T01:06:11.457Z,24.77
2018-06-16T01:07:20.110Z,24.78
2018-06-16T01:08:29.557Z,24.81
2018-06-16T01:09:38.977Z,24.8
2018-06-16T01:10:48.391Z,24.77
2018-06-16T01:11:58.064Z,24.78
2018-06-16T01:13:07.233Z,24.83
2018-06-16T01:14:16.219Z,24.84
2018-06-16T01:15:25.382Z,24.84
2018-06-16T01:16:34.839Z,24.83
2018-06-16T01:17:44.546Z,24.8
2018-06-16T01:18:54.240Z,24.81
2018-06-16T01:20:03.917Z,24.83
2018-06-16T01:21:13.097Z,24.84
2018-06-16T01:22:22.820Z,24.84
2018-06-16T01:23:31.751Z,24.78
2018-06-16T01:24:41.480Z,24.88
2018-06-16T01:25:51.180Z,24.81
2018-06-16T01:27:00.633Z,24.85
2018-06-16T01:28:10.586Z,24.8
2018-06-16T01:29:20.264Z,24.8
2018-06-16T01:30:29.692Z,24.77
2018-06-16T01:31:39.117Z,24.78
2018-06-16T01:32:48.545Z,24.81
2018-06-16T01:33:58.240Z,24.83
2018-06-16T01:35:07.182Z,24.85
2018-06-16T01:36:16.362Z,24.8
2018-06-16T01:37:25.539Z,24.81
2018-06-16T01:38:34.750Z,24.83
2018-06-16T01:39:44.177Z,24.81
2018-06-16T01:40:53.103Z,24.95
2018-06-16T01:42:02.290Z,24.77
2018-06-16T01:43:11.476Z,24.85
2018-06-16T01:44:21.408Z,24.8
2018-06-16T01:45:30.818Z,24.85
2018-06-16T01:46:39.988Z,24.83
2018-06-16T01:47:49.209Z,24.85
2018-06-16T01:48:58.378Z,24.87
2018-06-16T01:50:07.543Z,24.88
2018-06-16T01:51:16.695Z,24.9
2018-06-16T01:52:26.146Z,24.8
2018-06-16T01:53:35.550Z,24.83
2018-06-16T01:54:44.978Z,24.81
2018-06-16T01:55:54.406Z,24.83
2018-06-16T01:57:04.337Z,24.9
2018-06-16T01:58:13.519Z,24.77
2018-06-16T01:59:22.742Z,24.83
2018-06-16T02:00:32.168Z,24.9
2018-06-16T02:01:40.823Z,24.8
2018-06-16T02:02:50.264Z,24.81
2018-06-16T02:03:59.432Z,24.78
2018-06-16T02:05:09.110Z,24.83
2018-06-16T02:06:18.805Z,24.85
2018-06-16T02:07:28.242Z,24.78
2018-06-16T02:08:37.400Z,24.71
2018-06-16T02:09:46.576Z,24.83
2018-06-16T02:10:55.739Z,24.85
2018-06-16T02:12:05.209Z,24.77
2018-06-16T02:13:14.637Z,24.77
2018-06-16T02:14:24.571Z,24.83
2018-06-16T02:15:33.984Z,24.8
2018-06-16T02:16:43.677Z,24.85
2018-06-16T02:17:53.630Z,24.83
2018-06-16T02:19:03.327Z,24.78
2018-06-16T02:20:13.009Z,24.78
2018-06-16T02:21:22.454Z,24.78
2018-06-16T02:22:31.095Z,24.83
2018-06-16T02:23:40.521Z,24.81
2018-06-16T02:24:49.711Z,24.77
2018-06-16T02:25:59.429Z,24.85
2018-06-16T02:27:09.110Z,24.84
2018-06-16T02:28:18.566Z,24.84
2018-06-16T02:29:28.243Z,24.76
2018-06-16T02:30:37.421Z,24.77
2018-06-16T02:31:47.103Z,24.71
2018-06-16T02:32:56.788Z,24.8
2018-06-16T02:34:05.952Z,24.8
2018-06-16T02:35:15.630Z,24.81
2018-06-16T02:36:25.093Z,24.76
2018-06-16T02:37:34.534Z,24.8
2018-06-16T02:38:44.322Z,24.8
2018-06-16T02:39:53.758Z,24.78
2018-06-16T02:41:03.432Z,24.87
2018-06-16T02:42:12.869Z,24.73
2018-06-16T02:43:22.569Z,24.81
2018-06-16T02:44:31.490Z,24.78
2018-06-16T02:45:41.431Z,24.8
2018-06-16T02:46:50.879Z,24.83
2018-06-16T02:48:00.314Z,24.69
2018-06-16T02:49:09.497Z,24.76
2018-06-16T02:50:19.976Z,24.8
2018-06-16T02:51:29.661Z,24.78
2018-06-16T02:52:39.125Z,24.8
2018-06-16T02:53:48.093Z,24.78
2018-06-16T02:54:57.529Z,24.71
2018-06-16T02:56:06.999Z,24.83
2018-06-16T02:57:16.699Z,24.77
2018-06-16T02:58:25.870Z,24.73
2018-06-16T02:59:35.299Z,24.81
2018-06-16T03:00:44.748Z,24.77
2018-06-16T03:01:54.481Z,24.78
2018-06-16T03:03:04.454Z,24.77
2018-06-16T03:04:14.141Z,24.73
2018-06-16T03:05:23.584Z,24.77
2018-06-16T03:06:33.578Z,24.81
2018-06-16T03:07:43.019Z,24.8
2018-06-16T03:08:52.713Z,24.8
2018-06-16T03:10:02.156Z,24.76
2018-06-16T03:11:11.577Z,24.78
2018-06-16T03:12:21.256Z,24.8
2018-06-16T03:13:30.702Z,24.77
2018-06-16T03:14:40.422Z,24.8
2018-06-16T03:15:50.118Z,24.8
2018-06-16T03:16:59.802Z,24.83
2018-06-16T03:18:08.972Z,24.84
2018-06-16T03:19:18.129Z,24.81
2018-06-16T03:20:27.878Z,24.78
2018-06-16T03:21:36.534Z,24.76
2018-06-16T03:22:45.711Z,24.76
2018-06-16T03:23:54.879Z,24.8
2018-06-16T03:25:04.560Z,24.84
2018-06-16T03:26:13.998Z,24.78
2018-06-16T03:27:23.701Z,24.71
2018-06-16T03:28:33.131Z,24.81
2018-06-16T03:29:42.555Z,24.85
2018-06-16T03:30:51.981Z,24.87
2018-06-16T03:32:01.931Z,24.8
2018-06-16T03:33:11.358Z,24.76
2018-06-16T03:34:20.779Z,24.8
2018-06-16T03:35:29.965Z,24.8
2018-06-16T03:36:39.382Z,24.77
2018-06-16T03:37:48.819Z,24.8
2018-06-16T03:38:57.716Z,24.83
2018-06-16T03:40:07.150Z,24.76
2018-06-16T03:41:16.332Z,24.83
2018-06-16T03:42:25.757Z,24.77
2018-06-16T03:43:34.964Z,24.71
2018-06-16T03:44:44.130Z,24.73
2018-06-16T03:45:53.813Z,24.81
2018-06-16T03:47:03.250Z,24.76
2018-06-16T03:48:12.714Z,24.78
2018-06-16T03:49:21.631Z,24.76
2018-06-16T03:50:30.873Z,24.84
2018-06-16T03:51:40.564Z,24.76
2018-06-16T03:52:49.474Z,24.77
2018-06-16T03:53:58.924Z,24.77
2018-06-16T03:55:08.343Z,24.87
2018-06-16T03:56:18.018Z,24.8
2018-06-16T03:57:27.458Z,24.83
2018-06-16T03:58:37.218Z,24.77
2018-06-16T03:59:46.645Z,24.83
2018-06-16T04:00:55.825Z,24.84
2018-06-16T04:02:05.528Z,24.85
2018-06-16T04:03:14.948Z,24.84
2018-06-16T04:04:23.862Z,24.77
2018-06-16T04:05:33.304Z,24.77
2018-06-16T04:06:42.208Z,24.8
2018-06-16T04:07:51.456Z,24.81
2018-06-16T04:09:00.920Z,24.78
2018-06-16T04:10:10.348Z,24.78
2018-06-16T04:11:20.047Z,24.83
2018-06-16T04:12:29.505Z,24.83
2018-06-16T04:13:39.192Z,24.85
2018-06-16T04:14:48.685Z,24.83
2018-06-16T04:15:58.617Z,24.71
2018-06-16T04:17:08.348Z,24.81
2018-06-16T04:18:17.521Z,24.81
2018-06-16T04:19:26.694Z,24.76
2018-06-16T04:20:36.133Z,24.87
2018-06-16T04:21:45.563Z,24.77
2018-06-16T04:22:55.508Z,24.81
2018-06-16T04:24:05.150Z,24.83
2018-06-16T04:25:14.237Z,24.78
2018-06-16T04:26:23.421Z,24.81
2018-06-16T04:27:33.365Z,24.84
2018-06-16T04:28:42.312Z,24.83
2018-06-16T04:29:50.975Z,24.76
2018-06-16T04:31:00.412Z,24.76
2018-06-16T04:32:10.087Z,24.84
2018-06-16T04:33:19.002Z,24.77
2018-06-16T04:34:28.428Z,24.83
2018-06-16T04:35:37.858Z,24.84
2018-06-16T04:36:47.296Z,24.84
2018-06-16T04:37:56.213Z,24.83
2018-06-16T04:39:05.946Z,24.77
2018-06-16T04:40:14.855Z,24.76
2018-06-16T04:41:24.031Z,24.83
2018-06-16T04:42:33.714Z,24.8
2018-06-16T04:43:43.146Z,24.76
2018-06-16T04:44:52.415Z,24.83
2018-06-16T04:46:01.580Z,24.81
2018-06-16T04:47:10.761Z,24.83
2018-06-16T04:48:20.208Z,24.78
2018-06-16T04:49:29.647Z,24.73
2018-06-16T04:50:38.590Z,24.78
2018-06-16T04:51:48.339Z,24.84
2018-06-16T04:52:57.795Z,24.84
2018-06-16T04:54:07.219Z,24.81
2018-06-16T04:55:16.638Z,24.84
2018-06-16T04:56:26.328Z,24.87
2018-06-16T04:57:36.040Z,24.83
2018-06-16T04:58:45.982Z,24.84
2018-06-16T04:59:55.407Z,24.84
2018-06-16T05:01:04.890Z,24.77
2018-06-16T05:02:13.796Z,24.84
2018-06-16T05:03:23.734Z,24.77
2018-06-16T05:04:33.402Z,24.76
2018-06-16T05:05:42.836Z,24.85
2018-06-16T05:06:52.778Z,24.71
2018-06-16T05:08:02.202Z,24.78
2018-06-16T05:09:11.923Z,24.77
2018-06-16T05:10:21.364Z,24.87
2018-06-16T05:11:30.532Z,24.8
2018-06-16T05:12:40.244Z,24.76
2018-06-16T05:13:49.926Z,24.83
2018-06-16T05:14:59.619Z,24.68
2018-06-16T05:16:09.078Z,24.84
2018-06-16T05:17:18.262Z,24.76
2018-06-16T05:18:27.962Z,24.83
2018-06-16T05:19:37.411Z,24.71
2018-06-16T05:20:46.842Z,24.77
2018-06-16T05:21:56.436Z,24.85
2018-06-16T05:23:06.261Z,24.77
2018-06-16T05:24:15.785Z,24.85
2018-06-16T05:25:25.228Z,24.83
2018-06-16T05:26:34.687Z,24.76
2018-06-16T05:27:43.869Z,24.84
2018-06-16T05:28:53.561Z,24.87
2018-06-16T05:30:02.727Z,24.87
2018-06-16T05:31:12.156Z,24.83
2018-06-16T05:32:21.582Z,24.81
2018-06-16T05:33:31.540Z,24.77
2018-06-16T05:34:40.714Z,24.76
2018-06-16T05:35:49.896Z,24.84
2018-06-16T05:36:59.311Z,24.84
2018-06-16T05:38:08.732Z,24.76
2018-06-16T05:39:18.177Z,24.77
2018-06-16T05:40:27.105Z,24.77
2018-06-16T05:41:36.035Z,24.83
2018-06-16T05:42:45.463Z,24.77
2018-06-16T05:43:54.631Z,24.77
2018-06-16T05:45:03.807Z,24.85
2018-06-16T05:46:12.991Z,24.77
2018-06-16T05:47:22.413Z,24.78
2018-06-16T05:48:31.329Z,24.77
2018-06-16T05:49:40.813Z,24.77
2018-06-16T05:50:50.260Z,24.77
2018-06-16T05:51:59.436Z,24.8
2018-06-16T05:53:08.895Z,24.71
2018-06-16T05:54:17.833Z,24.8
2018-06-16T05:55:27.320Z,24.8
2018-06-16T05:56:37.040Z,24.81
2018-06-16T05:57:46.231Z,24.76
2018-06-16T05:58:55.695Z,24.81
2018-06-16T06:00:05.409Z,24.81
2018-06-16T06:01:14.317Z,24.81
2018-06-16T06:02:23.782Z,24.76
2018-06-16T06:03:33.198Z,24.83
2018-06-16T06:04:43.138Z,24.76
2018-06-16T06:05:52.325Z,24.77
2018-06-16T06:07:01.785Z,24.78
2018-06-16T06:08:10.690Z,24.83
2018-06-16T06:09:20.375Z,24.78
2018-06-16T06:10:30.389Z,24.78
2018-06-16T06:11:40.552Z,24.78
2018-06-16T06:12:50.265Z,24.78
2018-06-16T06:13:59.180Z,24.77
2018-06-16T06:15:08.095Z,24.81
2018-06-16T06:16:17.274Z,24.8
2018-06-16T06:17:26.944Z,24.78
2018-06-16T06:18:36.373Z,24.71
2018-06-16T06:19:45.816Z,24.84
2018-06-16T06:20:55.240Z,24.78
2018-06-16T06:22:04.203Z,24.85
2018-06-16T06:23:13.928Z,24.73
2018-06-16T06:24:23.885Z,24.81
2018-06-16T06:25:33.576Z,24.83
2018-06-16T06:26:43.567Z,24.81
2018-06-16T06:27:52.993Z,24.78
2018-06-16T06:29:02.759Z,24.73
2018-06-16T06:30:12.229Z,24.76
2018-06-16T06:31:21.440Z,24.77
2018-06-16T06:32:31.443Z,24.78
2018-06-16T06:33:41.000Z,24.84
2018-06-16T06:34:50.686Z,24.8
2018-06-16T06:36:00.674Z,24.73
2018-06-16T06:37:10.738Z,24.83
2018-06-16T06:38:20.251Z,24.73
2018-06-16T06:39:29.420Z,24.73
2018-06-16T06:40:38.619Z,24.77
2018-06-16T06:41:48.068Z,24.8
2018-06-16T06:42:58.014Z,24.85
2018-06-16T06:44:07.266Z,24.8
2018-06-16T06:45:16.952Z,24.81
2018-06-16T06:46:26.624Z,24.8
2018-06-16T06:47:35.822Z,24.78
2018-06-16T06:48:45.107Z,24.8
2018-06-16T06:49:55.121Z,24.83
2018-06-16T06:51:04.103Z,24.8
2018-06-16T06:52:13.540Z,24.8
2018-06-16T06:53:22.206Z,24.78
2018-06-16T06:54:31.884Z,24.77
2018-06-16T06:55:41.058Z,24.88
2018-06-16T06:56:50.228Z,24.81
2018-06-16T06:58:00.009Z,24.77
2018-06-16T06:59:09.184Z,24.87
2018-06-16T07:00:18.910Z,24.81
2018-06-16T07:01:28.673Z,24.81
2018-06-16T07:02:38.617Z,24.87
2018-06-16T07:03:47.538Z,24.77
2018-06-16T07:04:56.445Z,24.91
2018-06-16T07:06:06.140Z,24.83
2018-06-16T07:07:15.385Z,24.78
2018-06-16T07:08:25.135Z,24.81
2018-06-16T07:09:35.056Z,24.78
2018-06-16T07:10:44.101Z,24.83
2018-06-16T07:11:54.346Z,24.8
2018-06-16T07:13:03.545Z,24.88
2018-06-16T07:14:12.503Z,24.77
2018-06-16T07:15:21.973Z,24.78
2018-06-16T07:16:31.402Z,24.81
2018-06-16T07:17:41.081Z,24.76
2018-06-16T07:18:49.771Z,24.87
2018-06-16T07:19:58.948Z,24.8
2018-06-16T07:21:08.373Z,24.84
2018-06-16T07:22:17.809Z,24.81
2018-06-16T07:23:27.523Z,24.9
2018-06-16T07:24:37.589Z,24.85
2018-06-16T07:25:47.279Z,24.81
2018-06-16T07:26:56.172Z,24.78
2018-06-16T07:28:05.625Z,24.87
2018-06-16T07:29:15.263Z,24.84
2018-06-16T07:30:25.132Z,24.83
2018-06-16T07:31:34.824Z,24.93
2018-06-16T07:32:43.740Z,24.83
2018-06-16T07:33:53.143Z,24.84
2018-06-16T07:35:01.817Z,24.88
2018-06-16T07:36:11.121Z,24.78
2018-06-16T07:37:20.911Z,24.81
2018-06-16T07:38:30.097Z,24.77
2018-06-16T07:39:39.515Z,24.77
2018-06-16T07:40:48.953Z,24.84
2018-06-16T07:41:58.405Z,24.77
2018-06-16T07:43:07.868Z,24.83
2018-06-16T07:44:17.032Z,24.84
2018-06-16T07:45:26.458Z,24.85
2018-06-16T07:46:36.420Z,24.84
2018-06-16T07:47:45.340Z,24.8
2018-06-16T07:48:54.907Z,24.81
2018-06-16T07:50:04.031Z,24.84
2018-06-16T07:51:13.195Z,24.8
2018-06-16T07:52:22.610Z,24.8
2018-06-16T07:53:32.350Z,24.8
2018-06-16T07:54:41.533Z,24.91
2018-06-16T07:55:51.244Z,24.88
2018-06-16T07:57:00.431Z,24.78
2018-06-16T07:58:09.863Z,24.85
2018-06-16T07:59:19.067Z,24.83
2018-06-16T08:00:28.759Z,24.78
2018-06-16T08:01:38.217Z,24.87
2018-06-16T08:02:47.716Z,24.93
2018-06-16T08:03:57.551Z,24.8
2018-06-16T08:05:06.736Z,24.81
2018-06-16T08:06:15.934Z,24.77
2018-06-16T08:07:25.363Z,24.81
2018-06-16T08:08:34.543Z,24.77
2018-06-16T08:09:43.965Z,24.88
2018-06-16T08:10:53.148Z,24.81
2018-06-16T08:12:02.668Z,24.8
2018-06-16T08:13:11.840Z,24.84
2018-06-16T08:14:21.254Z,24.8
2018-06-16T08:15:30.439Z,24.78
2018-06-16T08:16:39.872Z,24.81
2018-06-16T08:17:49.814Z,24.84
2018-06-16T08:18:58.976Z,24.8
2018-06-16T08:20:08.145Z,24.81
2018-06-16T08:21:17.328Z,24.84
2018-06-16T08:22:27.305Z,24.77
2018-06-16T08:23:37.234Z,24.78
2018-06-16T08:24:46.935Z,24.77
2018-06-16T08:25:56.416Z,24.78
2018-06-16T08:27:05.847Z,24.78
2018-06-16T08:28:15.044Z,24.78
2018-06-16T08:29:24.226Z,24.84
2018-06-16T08:30:33.168Z,24.84
2018-06-16T08:31:42.851Z,24.81
2018-06-16T08:32:52.716Z,24.87
2018-06-16T08:34:01.915Z,24.8
2018-06-16T08:35:11.429Z,24.83
2018-06-16T08:36:20.592Z,24.81
2018-06-16T08:37:30.275Z,24.84
2018-06-16T08:38:39.988Z,24.8
2018-06-16T08:39:49.427Z,24.78
2018-06-16T08:40:58.866Z,24.81
2018-06-16T08:42:07.801Z,24.78
2018-06-16T08:43:17.429Z,24.81
2018-06-16T08:44:27.302Z,24.9
2018-06-16T08:45:36.726Z,24.83
2018-06-16T08:46:46.197Z,24.81
2018-06-16T08:47:55.116Z,24.8
2018-06-16T08:49:04.092Z,24.77
2018-06-16T08:50:13.255Z,24.8
2018-06-16T08:51:22.969Z,24.77
2018-06-16T08:52:31.885Z,24.8
2018-06-16T08:53:41.570Z,24.77
2018-06-16T08:54:50.759Z,24.81
2018-06-16T08:55:59.982Z,24.8
2018-06-16T08:57:09.411Z,24.81
2018-06-16T08:58:18.077Z,24.78
2018-06-16T08:59:27.834Z,24.81
2018-06-16T09:00:37.060Z,24.8
2018-06-16T09:01:46.738Z,24.83
2018-06-16T09:02:56.177Z,24.83
2018-06-16T09:04:05.376Z,24.81
2018-06-16T09:05:14.565Z,24.8
2018-06-16T09:06:23.995Z,24.78
2018-06-16T09:07:33.422Z,24.81
2018-06-16T09:08:42.850Z,24.78
2018-06-16T09:09:52.569Z,24.78
2018-06-16T09:11:01.738Z,24.88
2018-06-16T09:12:11.417Z,24.78
2018-06-16T09:13:21.124Z,24.85
2018-06-16T09:14:30.039Z,24.93
2018-06-16T09:15:38.984Z,24.78
2018-06-16T09:16:48.434Z,24.78
2018-06-16T09:17:58.146Z,24.83
2018-06-16T09:19:07.341Z,24.85
2018-06-16T09:20:16.316Z,24.83
2018-06-16T09:21:25.735Z,24.83
2018-06-16T09:22:35.363Z,24.81
2018-06-16T09:23:44.181Z,24.81
2018-06-16T09:24:53.634Z,24.78
2018-06-16T09:26:02.783Z,24.85
2018-06-16T09:27:12.236Z,24.78
2018-06-16T09:28:21.674Z,24.78
2018-06-16T09:29:31.348Z,24.91
2018-06-16T09:30:40.523Z,24.78
2018-06-16T09:31:50.310Z,24.83
2018-06-16T09:32:59.551Z,24.9
2018-06-16T09:34:08.213Z,24.91
2018-06-16T09:35:17.639Z,24.84
2018-06-16T09:36:26.559Z,24.83
2018-06-16T09:37:35.815Z,24.88
2018-06-16T09:38:45.516Z,24.8
2018-06-16T09:39:54.945Z,24.88
2018-06-16T09:41:04.117Z,24.9
2018-06-16T09:42:13.062Z,24.91
2018-06-16T09:43:22.032Z,24.91
2018-06-16T09:44:30.949Z,24.93
2018-06-16T09:45:39.883Z,24.91
2018-06-16T09:46:49.647Z,24.91
2018-06-16T09:47:59.335Z,24.95
2018-06-16T09:49:08.247Z,24.91
2018-06-16T09:50:17.676Z,24.91
2018-06-16T09:51:27.356Z,24.91
2018-06-16T09:52:36.783Z,24.88
2018-06-16T09:53:46.468Z,24.93
2018-06-16T09:54:55.667Z,24.95
2018-06-16T09:56:04.836Z,24.88
2018-06-16T09:57:14.011Z,24.95
2018-06-16T09:58:23.951Z,24.91
2018-06-16T09:59:33.125Z,24.95
2018-06-16T10:00:42.600Z,24.9
2018-06-16T10:01:52.032Z,24.9
2018-06-16T10:03:02.034Z,24.95
2018-06-16T10:04:11.776Z,24.9
2018-06-16T10:05:20.949Z,24.96
2018-06-16T10:06:30.129Z,24.95
2018-06-16T10:07:39.679Z,24.91
2018-06-16T10:08:49.270Z,24.91
2018-06-16T10:09:59.036Z,24.93
2018-06-16T10:11:08.554Z,24.9
2018-06-16T10:12:17.987Z,24.93
2018-06-16T10:13:27.555Z,24.95
2018-06-16T10:14:37.043Z,24.9
2018-06-16T10:15:46.240Z,24.9
2018-06-16T10:16:55.834Z,24.95
2018-06-16T10:18:04.737Z,24.87
2018-06-16T10:19:14.042Z,24.9
2018-06-16T10:20:23.977Z,24.93
2018-06-16T10:21:33.666Z,24.96
2018-06-16T10:22:42.936Z,24.9
2018-06-16T10:23:52.351Z,24.9
2018-06-16T10:25:01.536Z,24.87
2018-06-16T10:26:11.144Z,24.88
2018-06-16T10:27:20.139Z,24.96
2018-06-16T10:28:29.335Z,24.88
2018-06-16T10:29:38.833Z,24.91
2018-06-16T10:30:48.334Z,24.88
2018-06-16T10:31:57.805Z,24.96
2018-06-16T10:33:07.697Z,24.9
2018-06-16T10:34:17.325Z,24.93
2018-06-16T10:35:26.045Z,24.96
2018-06-16T10:36:35.491Z,24.93
2018-06-16T10:37:45.524Z,24.96
2018-06-16T10:38:54.908Z,24.93
2018-06-16T10:40:04.442Z,24.9
2018-06-16T10:41:13.871Z,24.93
2018-06-16T10:42:23.064Z,24.96
2018-06-16T10:43:32.279Z,24.96
2018-06-16T10:44:42.247Z,24.93
2018-06-16T10:45:51.706Z,24.96
2018-06-16T10:47:01.508Z,24.93
2018-06-16T10:48:11.252Z,24.93
2018-06-16T10:49:20.683Z,24.93
2018-06-16T10:50:30.268Z,24.9
2018-06-16T10:51:40.004Z,24.9
2018-06-16T10:52:49.750Z,24.93
2018-06-16T10:53:58.947Z,24.93
2018-06-16T10:55:08.473Z,24.96
2018-06-16T10:56:18.207Z,24.95
2018-06-16T10:57:28.168Z,24.95
2018-06-16T10:58:38.114Z,24.91
2018-06-16T10:59:47.640Z,24.96
2018-06-16T11:00:57.063Z,24.9
2018-06-16T11:02:06.049Z,24.9
2018-06-16T11:03:15.285Z,24.88
2018-06-16T11:04:24.240Z,24.91
2018-06-16T11:05:33.533Z,24.91
2018-06-16T11:06:42.923Z,24.91
2018-06-16T11:07:52.697Z,24.91
2018-06-16T11:09:02.393Z,24.93
2018-06-16T11:10:11.920Z,24.93
2018-06-16T11:11:21.489Z,24.95
2018-06-16T11:12:30.757Z,24.93
2018-06-16T11:13:40.188Z,24.9
2018-06-16T11:14:49.994Z,24.88
2018-06-16T11:15:59.504Z,24.96
2018-06-16T11:17:08.982Z,24.91
2018-06-16T11:18:18.508Z,24.91
2018-06-16T11:19:27.970Z,24.93
2018-06-16T11:20:37.435Z,24.9
2018-06-16T11:21:47.219Z,24.95
2018-06-16T11:22:56.425Z,24.93
2018-06-16T11:24:05.601Z,24.93
2018-06-16T11:25:15.293Z,24.91
2018-06-16T11:26:24.764Z,24.93
2018-06-16T11:27:34.007Z,24.96
2018-06-16T11:28:43.208Z,24.95
2018-06-16T11:29:52.895Z,24.91
2018-06-16T11:31:02.349Z,24.95
2018-06-16T11:32:12.029Z,24.96
2018-06-16T11:33:22.072Z,24.95
2018-06-16T11:34:31.713Z,24.95
2018-06-16T11:35:40.393Z,24.91
2018-06-16T11:36:49.849Z,24.93
2018-06-16T11:37:59.250Z,24.93
2018-06-16T11:39:10.109Z,24.93
2018-06-16T11:40:19.714Z,24.93
2018-06-16T11:41:28.959Z,24.93
2018-06-16T11:42:38.151Z,24.93
2018-06-16T11:43:47.431Z,24.85
2018-06-16T11:44:56.608Z,24.95
2018-06-16T11:46:05.804Z,24.95
2018-06-16T11:47:15.391Z,24.96
2018-06-16T11:48:24.855Z,24.93
2018-06-16T11:49:34.272Z,24.91
2018-06-16T11:50:44.165Z,25
2018-06-16T11:51:53.898Z,24.98
2018-06-16T11:53:03.155Z,24.98
2018-06-16T11:54:12.609Z,24.9
2018-06-16T11:55:21.558Z,24.96
2018-06-16T11:56:31.342Z,24.91
2018-06-16T11:57:41.601Z,24.91
2018-06-16T11:58:51.323Z,24.98
2018-06-16T12:00:00.753Z,24.93
2018-06-16T12:01:10.184Z,24.91
2018-06-16T12:02:19.919Z,24.93
2018-06-16T12:03:29.937Z,24.95
2018-06-16T12:04:39.205Z,24.96
2018-06-16T12:05:48.972Z,24.91
2018-06-16T12:06:58.710Z,24.95
2018-06-16T12:08:07.906Z,24.98
2018-06-16T12:09:16.918Z,24.91
2018-06-16T12:10:26.614Z,25.02
2018-06-16T12:11:36.036Z,24.95
2018-06-16T12:12:45.488Z,24.87
2018-06-16T12:13:55.322Z,24.99
2018-06-16T12:15:04.530Z,24.93
2018-06-16T12:16:13.953Z,24.95
2018-06-16T12:17:23.402Z,24.98
2018-06-16T12:18:33.415Z,24.93
2018-06-16T12:19:42.593Z,24.95
2018-06-16T12:20:51.869Z,24.95
2018-06-16T12:22:01.042Z,24.95
2018-06-16T12:23:10.264Z,24.88
2018-06-16T12:24:19.693Z,25
2018-06-16T12:25:28.916Z,24.9
2018-06-16T12:26:38.455Z,24.98
2018-06-16T12:27:47.693Z,24.9
2018-06-16T12:28:57.403Z,24.93
2018-06-16T12:30:07.052Z,24.98
2018-06-16T12:31:16.250Z,25
2018-06-16T12:32:25.680Z,25
2018-06-16T12:33:34.873Z,24.99
2018-06-16T12:34:44.301Z,24.95
2018-06-16T12:35:53.605Z,25.06
2018-06-16T12:37:03.363Z,24.9
2018-06-16T12:38:13.441Z,24.96
2018-06-16T12:39:22.958Z,25
2018-06-16T12:40:32.178Z,24.95
2018-06-16T12:41:42.176Z,24.93
2018-06-16T12:42:51.733Z,25
2018-06-16T12:44:01.492Z,24.98
2018-06-16T12:45:11.194Z,24.98
2018-06-16T12:46:21.129Z,24.93
2018-06-16T12:47:31.118Z,25.02
2018-06-16T12:48:40.593Z,24.98
2018-06-16T12:49:49.775Z,24.95
2018-06-16T12:50:59.582Z,24.93
2018-06-16T12:52:09.193Z,24.96
2018-06-16T12:53:18.892Z,24.93
2018-06-16T12:54:27.804Z,25
2018-06-16T12:55:37.281Z,24.99
2018-06-16T12:56:46.557Z,24.91
2018-06-16T12:57:56.468Z,24.95
2018-06-16T12:59:05.709Z,24.98
2018-06-16T13:00:14.863Z,24.96
2018-06-16T13:01:24.818Z,24.98
2018-06-16T13:02:34.124Z,25
2018-06-16T13:03:43.330Z,24.87
2018-06-16T13:04:52.748Z,24.91
2018-06-16T13:06:01.915Z,24.95
2018-06-16T13:07:11.596Z,25
2018-06-16T13:08:20.865Z,24.98
2018-06-16T13:09:30.950Z,25.02
2018-06-16T13:10:39.961Z,24.99
2018-06-16T13:11:49.702Z,25.05
2018-06-16T13:12:58.649Z,24.93
2018-06-16T13:14:07.836Z,24.9
2018-06-16T13:15:16.768Z,25
2018-06-16T13:16:25.999Z,25
2018-06-16T13:17:35.267Z,24.93
2018-06-16T13:18:44.971Z,24.95
2018-06-16T13:19:54.190Z,24.9
2018-06-16T13:21:03.548Z,25
2018-06-16T13:22:12.977Z,24.96
2018-06-16T13:23:22.705Z,24.9
2018-06-16T13:24:32.140Z,25.05
2018-06-16T13:25:41.610Z,25.03
2018-06-16T13:26:51.371Z,24.91
2018-06-16T13:28:00.615Z,24.98
2018-06-16T13:29:09.662Z,24.98
2018-06-16T13:30:19.789Z,25.06
2018-06-16T13:31:28.708Z,24.96
2018-06-16T13:32:38.234Z,24.93
2018-06-16T13:33:47.826Z,24.96
2018-06-16T13:34:57.599Z,25
2018-06-16T13:36:07.256Z,24.95
2018-06-16T13:37:16.481Z,25.05
2018-06-16T13:38:25.950Z,24.99
2018-06-16T13:39:35.459Z,24.95
2018-06-16T13:40:44.679Z,25.03
2018-06-16T13:41:54.385Z,24.96
2018-06-16T13:43:03.632Z,24.98
2018-06-16T13:44:13.174Z,25
2018-06-16T13:45:22.634Z,25
2018-06-16T13:46:32.398Z,24.95
2018-06-16T13:47:42.112Z,24.95
2018-06-16T13:48:51.592Z,25
2018-06-16T13:50:01.053Z,24.96
2018-06-16T13:51:09.984Z,24.95
2018-06-16T13:52:19.663Z,24.93
2018-06-16T13:53:29.125Z,24.96
2018-06-16T13:54:38.374Z,25
2018-06-16T13:55:47.555Z,24.96
2018-06-16T13:56:57.013Z,25
2018-06-16T13:58:06.776Z,24.99
2018-06-16T13:59:16.248Z,25
2018-06-16T14:00:25.453Z,24.98
2018-06-16T14:01:34.883Z,24.98
2018-06-16T14:02:44.445Z,24.98
2018-06-16T14:03:53.607Z,24.96
2018-06-16T14:05:03.285Z,25.03
2018-06-16T14:06:12.970Z,24.96
2018-06-16T14:07:22.527Z,25.05
2018-06-16T14:08:31.984Z,24.96
2018-06-16T14:09:41.505Z,24.96
2018-06-16T14:10:51.248Z,24.99
2018-06-16T14:12:00.828Z,25.06
2018-06-16T14:13:10.518Z,25.08
2018-06-16T14:14:19.957Z,25.08
2018-06-16T14:15:29.708Z,25.05
2018-06-16T14:16:38.908Z,25.03
2018-06-16T14:17:48.410Z,24.96
2018-06-16T14:18:58.147Z,25.02
2018-06-16T14:20:06.822Z,25.08
2018-06-16T14:21:16.046Z,24.98
2018-06-16T14:22:25.324Z,25.02
2018-06-16T14:23:35.495Z,25.09
2018-06-16T14:24:44.863Z,25.05
2018-06-16T14:25:54.681Z,24.98
2018-06-16T14:27:04.113Z,25.06
2018-06-16T14:28:13.330Z,25.06
2018-06-16T14:29:22.548Z,25.05
2018-06-16T14:30:32.013Z,25.05
2018-06-16T14:31:41.202Z,25.05
2018-06-16T14:32:50.451Z,25.05
2018-06-16T14:33:59.736Z,25.03
2018-06-16T14:35:09.432Z,25.05
2018-06-16T14:36:19.037Z,24.95
2018-06-16T14:37:28.751Z,25.08
2018-06-16T14:38:37.975Z,25.1
2018-06-16T14:39:47.223Z,25.05
2018-06-16T14:40:56.674Z,25.1
2018-06-16T14:42:05.858Z,25.09
2018-06-16T14:43:15.333Z,25.13
2018-06-16T14:44:25.113Z,25.09
2018-06-16T14:45:34.827Z,25.15
2018-06-16T14:46:44.004Z,25.1
2018-06-16T14:47:53.197Z,25.1
2018-06-16T14:49:03.191Z,25.18
2018-06-16T14:50:12.721Z,25.09
2018-06-16T14:51:21.482Z,25.17
2018-06-16T14:52:30.755Z,25.17
2018-06-16T14:53:40.602Z,25.14
2018-06-16T14:54:49.808Z,25.09
2018-06-16T14:55:59.551Z,25.13
2018-06-16T14:57:09.230Z,25.13
2018-06-16T14:58:19.209Z,25.14
2018-06-16T14:59:28.448Z,25.13
2018-06-16T15:00:38.008Z,25.15